Date,TemperatureHighF,TemperatureAvgF,TemperatureLowF,DewpointHighF,DewpointAvgF,DewpointLowF,HumidityHigh,HumidityAvg,HumidityLow,PressureMaxIn,PressureMinIn,WindSpeedMaxMPH,WindSpeedAvgMPH,GustSpeedMaxMPH,PrecipitationSumIn
2013-5-10,82,74,60,65,61,54,83,66,53,29.87,29.76,0,0,0,0.00
2013-5-11,80,73,67,66,62,59,81,70,59,29.78,29.62,0,0,0,0.00
2013-5-12,74,67,61,62,53,40,84,62,38,29.85,29.64,0,0,0,0.00
2013-5-13,68,60,51,43,40,36,70,51,32,29.98,29.83,0,0,0,0.00
2013-5-14,72,61,47,47,43,37,71,53,40,30.05,29.88,0,0,0,0.00
2013-5-15,85,69,58,65,54,46,73,61,49,29.89,29.75,0,0,0,0.00
2013-5-16,82,76,68,64,62,59,76,61,49,29.84,29.75,0,0,0,0.00
2013-5-17,84,74,64,68,63,58,83,69,52,29.90,29.81,0,0,0,0.00
2013-5-18,75,71,67,66,63,61,86,78,70,29.95,29.87,0,0,0,0.00
2013-5-19,74,70,68,71,66,63,91,88,84,29.92,29.84,0,0,0,0.00
2013-5-20,80,72,68,71,68,65,92,86,70,29.92,29.81,0,0,0,0.00
2013-5-21,83,72,68,74,67,63,91,86,70,29.87,29.76,0,0,0,0.00
2013-5-22,83,74,68,71,67,62,91,80,63,29.84,29.70,0,0,0,0.00
2013-5-23,78,70,67,69,64,63,89,83,73,29.79,29.64,0,0,0,0.00
2013-5-24,71,68,63,63,57,45,85,70,39,29.89,29.67,0,0,0,0.00
2013-5-25,75,68,53,53,49,45,76,52,39,30.11,29.94,0,0,0,0.00
2013-5-26,75,66,60,54,49,44,71,56,42,30.09,29.97,0,0,0,0.00
2013-5-27,81,70,59,63,57,51,78,65,50,30.07,29.95,0,0,0,0.00
2013-5-28,83,74,66,68,64,60,84,71,59,30.06,29.95,0,0,0,0.00
2013-5-29,84,74,66,68,64,59,82,69,56,30.07,29.96,0,0,0,0.00
2013-5-30,84,74,66,67,64,60,84,71,54,30.09,29.97,0,0,0,0.00
2013-5-31,84,76,69,70,67,63,87,74,59,30.05,29.91,0,0,0,0.00